Time;durP1;ratioP1;P1;durP2;ratioP2;P2;SDS_P1;SDS_P2;PMS_P1;PMS_P2;Temp;Humidity;BMP_temperature;BMP_pressure;BME280_temperature;BME280_humidity;BME280_pressure;Samples;Min_cycle;Max_cycle;Signal;HPM_P1;HPM_P2
2021/05/23 00:02:07;;;;;;;2.70;0.95;;;11.80;52.20;;;;;;5098691;28;20197;-78
2021/05/23 00:04:34;;;;;;;2.00;0.55;;;11.80;53.10;;;;;;5098710;28;20300;-81
2021/05/23 00:07:00;;;;;;;1.08;0.82;;;11.70;53.40;;;;;;5096570;28;20213;-79
2021/05/23 00:09:28;;;;;;;1.20;0.90;;;11.70;53.60;;;;;;5095500;28;20202;-81
2021/05/23 00:11:55;;;;;;;0.70;0.65;;;11.70;52.50;;;;;;5080458;28;20256;-80
2021/05/23 00:14:22;;;;;;;2.30;0.90;;;11.70;52.10;;;;;;5081008;28;20293;-78
2021/05/23 00:16:49;;;;;;;1.02;0.95;;;11.80;50.90;;;;;;5079905;28;20236;-81
2021/05/23 00:19:16;;;;;;;1.90;0.70;;;11.90;50.90;;;;;;5082204;28;20347;-78
2021/05/23 00:21:43;;;;;;;1.05;0.88;;;12.10;48.60;;;;;;5094664;28;20216;-79
2021/05/23 00:24:09;;;;;;;0.73;0.70;;;12.20;47.90;;;;;;5087050;28;20221;-80
2021/05/23 00:26:37;;;;;;;0.85;0.85;;;12.30;47.70;;;;;;5080760;28;20733;-80
2021/05/23 00:29:04;;;;;;;1.40;0.80;;;12.30;47.70;;;;;;5082914;28;20206;-81
2021/05/23 00:31:31;;;;;;;1.63;0.80;;;12.40;47.50;;;;;;5082840;28;20213;-81
2021/05/23 00:33:58;;;;;;;0.95;0.95;;;12.40;47.60;;;;;;5084678;28;20429;-78
2021/05/23 00:36:24;;;;;;;1.10;0.77;;;12.50;47.00;;;;;;5096898;28;20206;-80
2021/05/23 00:38:51;;;;;;;2.38;1.00;;;12.60;46.80;;;;;;5095156;28;20206;-81
2021/05/23 00:41:17;;;;;;;2.03;0.88;;;12.50;46.50;;;;;;5080448;28;20237;-81
2021/05/23 00:43:44;;;;;;;1.40;0.68;;;12.50;46.90;;;;;;5083285;28;20247;-81
2021/05/23 00:46:11;;;;;;;0.60;0.50;;;12.50;45.90;;;;;;5079628;28;20206;-80
2021/05/23 00:48:37;;;;;;;3.08;0.60;;;12.50;45.90;;;;;;5079861;28;20253;-81
2021/05/23 00:51:04;;;;;;;0.90;0.80;;;12.60;46.00;;;;;;5080330;28;20281;-79
2021/05/23 00:53:30;;;;;;;1.90;0.77;;;12.60;45.80;;;;;;5080291;28;20302;-81
2021/05/23 00:55:57;;;;;;;2.60;0.85;;;12.60;45.50;;;;;;5079388;28;20220;-80
2021/05/23 00:58:23;;;;;;;0.60;0.60;;;12.50;45.80;;;;;;5078577;28;20229;-81
2021/05/23 01:01:22;;;;;;;0.65;0.60;;;12.50;45.90;;;;;;5082429;28;20205;-79
2021/05/23 01:03:57;;;;;;;0.52;0.52;;;12.40;46.10;;;;;;5090151;28;20213;-80
2021/05/23 01:06:25;;;;;;;0.65;0.65;;;12.40;46.30;;;;;;5079092;28;20292;-80
2021/05/23 01:08:52;;;;;;;2.25;0.70;;;12.30;47.10;;;;;;5078404;28;20267;-80
2021/05/23 01:12:06;;;;;;;1.48;0.60;;;12.30;47.20;;;;;;5079164;28;20260;-80
2021/05/23 01:14:48;;;;;;;1.77;0.95;;;12.30;46.20;;;;;;5077046;28;20228;-78
2021/05/23 01:17:15;;;;;;;1.95;0.68;;;12.40;46.00;;;;;;5076356;28;20260;-79
2021/05/23 01:20:07;;;;;;;1.13;0.57;;;12.40;46.10;;;;;;5076657;28;20197;-83
2021/05/23 01:22:39;;;;;;;1.00;0.70;;;12.30;46.10;;;;;;5076572;28;20461;-79
2021/05/23 01:25:10;;;;;;;0.50;0.50;;;12.40;46.20;;;;;;5077010;28;20265;-80
2021/05/23 01:27:37;;;;;;;0.50;0.50;;;12.30;46.20;;;;;;5077022;28;20230;-80
2021/05/23 01:30:07;;;;;;;1.00;0.90;;;12.30;46.50;;;;;;5078386;28;20217;-81
2021/05/23 01:32:35;;;;;;;0.80;0.70;;;12.30;46.40;;;;;;5079480;28;20274;-81
2021/05/23 01:35:08;;;;;;;1.23;0.73;;;12.40;46.30;;;;;;5086981;28;20205;-80
2021/05/23 01:37:35;;;;;;;2.25;1.40;;;12.30;46.40;;;;;;5093591;28;20261;-80
2021/05/23 01:40:03;;;;;;;1.40;0.80;;;12.30;46.50;;;;;;5092726;28;20413;-78
2021/05/23 01:42:32;;;;;;;0.50;0.50;;;12.30;46.50;;;;;;5095008;28;20205;-80
2021/05/23 01:44:58;;;;;;;1.27;0.60;;;12.30;46.70;;;;;;5095006;28;20242;-80
2021/05/23 01:47:25;;;;;;;1.85;0.90;;;12.30;47.00;;;;;;5090372;28;20226;-80
2021/05/23 01:49:52;;;;;;;1.45;0.90;;;12.30;47.40;;;;;;5077269;28;20292;-79
2021/05/23 01:52:18;;;;;;;2.33;0.93;;;12.30;47.80;;;;;;5077531;28;20712;-80
2021/05/23 01:54:45;;;;;;;2.88;0.80;;;12.20;48.00;;;;;;5080639;28;20198;-79
2021/05/23 01:57:11;;;;;;;2.08;0.90;;;12.20;48.30;;;;;;5092300;28;20206;-79
2021/05/23 01:59:38;;;;;;;0.82;0.55;;;12.20;48.40;;;;;;5096554;28;20201;-78
2021/05/23 02:02:05;;;;;;;0.98;0.77;;;12.20;48.50;;;;;;5095776;28;20286;-80
2021/05/23 02:04:32;;;;;;;0.77;0.75;;;12.20;48.90;;;;;;5094802;28;20225;-79
2021/05/23 02:06:58;;;;;;;1.58;0.70;;;12.20;49.40;;;;;;5094763;28;20312;-81
2021/05/23 02:09:24;;;;;;;1.35;0.95;;;12.10;49.70;;;;;;5094901;28;20239;-82
2021/05/23 02:11:55;;;;;;;0.52;0.52;;;12.10;50.50;;;;;;5095000;28;20209;-82
2021/05/23 02:14:22;;;;;;;1.95;0.68;;;12.10;51.20;;;;;;5092421;28;20194;-81
2021/05/23 02:16:54;;;;;;;1.02;0.70;;;12.10;52.70;;;;;;5086804;28;20230;-79
2021/05/23 02:19:21;;;;;;;0.77;0.77;;;12.10;54.40;;;;;;5083286;28;20201;-80
2021/05/23 02:21:48;;;;;;;0.68;0.68;;;12.00;56.30;;;;;;5081638;28;20209;-78
2021/05/23 02:24:15;;;;;;;1.83;1.40;;;11.90;57.30;;;;;;5078668;28;20225;-78
2021/05/23 02:29:10;;;;;;;1.27;0.77;;;11.80;59.10;;;;;;4942149;29;20214;-79
2021/05/23 02:31:37;;;;;;;1.15;0.95;;;11.70;56.20;;;;;;4948539;28;20209;-80
2021/05/23 02:34:05;;;;;;;0.75;0.75;;;11.60;53.70;;;;;;4938669;29;20229;-78
2021/05/23 02:36:31;;;;;;;2.55;0.73;;;11.70;53.00;;;;;;4947830;29;20207;-80
2021/05/23 02:38:58;;;;;;;0.85;0.75;;;11.70;51.90;;;;;;4934577;28;20570;-78
2021/05/23 02:41:24;;;;;;;2.50;0.90;;;11.70;51.20;;;;;;4938153;29;20214;-79
2021/05/23 02:43:51;;;;;;;1.42;0.70;;;11.70;50.80;;;;;;4940968;29;20233;-79
2021/05/23 02:46:18;;;;;;;0.70;0.60;;;11.70;51.10;;;;;;4934432;29;20670;-78
2021/05/23 02:48:44;;;;;;;0.80;0.70;;;11.70;51.20;;;;;;4934824;28;20234;-78
2021/05/23 02:51:12;;;;;;;1.42;0.57;;;11.70;51.20;;;;;;4945973;29;20199;-78
2021/05/23 02:53:38;;;;;;;0.90;0.77;;;11.70;50.80;;;;;;4941613;29;20207;-78
2021/05/23 02:56:05;;;;;;;1.95;0.68;;;11.70;50.80;;;;;;4944731;29;20214;-77
2021/05/23 02:58:31;;;;;;;1.50;0.88;;;11.70;52.80;;;;;;4944754;28;20230;-77
2021/05/23 03:00:58;;;;;;;1.30;0.88;;;11.70;53.70;;;;;;4940739;29;20615;-77
2021/05/23 03:03:25;;;;;;;1.40;0.80;;;11.60;54.60;;;;;;4948935;29;20253;-78
2021/05/23 03:05:51;;;;;;;0.90;0.70;;;11.50;55.60;;;;;;4950948;29;20207;-80
2021/05/23 03:08:19;;;;;;;2.58;0.80;;;11.50;56.60;;;;;;4941819;28;20230;-79
2021/05/23 03:10:47;;;;;;;3.17;0.90;;;11.50;57.00;;;;;;4943192;29;20215;-78
2021/05/23 03:13:15;;;;;;;2.85;1.15;;;11.40;58.60;;;;;;4951559;29;20206;-79
2021/05/23 03:15:42;;;;;;;0.98;0.70;;;11.30;59.90;;;;;;4945784;28;20605;-79
2021/05/23 03:18:09;;;;;;;2.35;0.70;;;11.30;61.60;;;;;;4932726;29;20302;-79
2021/05/23 03:20:37;;;;;;;0.73;0.73;;;11.20;63.50;;;;;;4932733;29;20206;-78
2021/05/23 03:23:04;;;;;;;1.77;0.77;;;11.10;65.80;;;;;;4932523;29;20238;-78
2021/05/23 03:25:32;;;;;;;1.55;1.13;;;11.00;68.50;;;;;;4933523;29;20714;-78
2021/05/23 03:27:59;;;;;;;2.20;0.95;;;11.00;68.50;;;;;;4936069;29;20284;-78
2021/05/23 03:30:31;;;;;;;1.60;0.98;;;10.90;71.00;;;;;;4950829;29;20210;-78
2021/05/23 03:32:57;;;;;;;1.98;0.75;;;10.80;72.70;;;;;;4943280;29;20214;-79
2021/05/23 03:35:24;;;;;;;2.40;0.90;;;10.80;74.80;;;;;;4939149;29;20230;-79
2021/05/23 03:37:51;;;;;;;0.93;0.93;;;10.80;75.90;;;;;;4941786;29;20234;-78
2021/05/23 03:40:19;;;;;;;2.20;0.90;;;10.80;77.00;;;;;;4940172;29;20586;-79
2021/05/23 03:42:48;;;;;;;1.50;0.98;;;10.70;76.90;;;;;;4940726;28;20237;-79
2021/05/23 03:45:16;;;;;;;1.20;0.90;;;10.80;77.60;;;;;;4940289;29;20230;-79
2021/05/23 03:47:43;;;;;;;2.05;1.10;;;10.80;77.00;;;;;;4938950;29;20253;-80
2021/05/23 03:50:11;;;;;;;2.55;0.90;;;10.80;77.00;;;;;;4939085;28;20222;-79
2021/05/23 03:52:39;;;;;;;0.98;0.88;;;10.80;77.00;;;;;;4938323;28;20350;-81
2021/05/23 03:55:08;;;;;;;1.35;0.93;;;10.80;77.00;;;;;;4938435;29;20246;-78
2021/05/23 03:57:35;;;;;;;1.95;1.20;;;10.80;76.60;;;;;;4942359;29;20233;-78
2021/05/23 04:00:03;;;;;;;3.15;1.42;;;10.80;75.70;;;;;;4949861;29;20303;-79
2021/05/23 04:02:29;;;;;;;1.42;0.80;;;10.80;74.50;;;;;;4953318;29;20214;-78
2021/05/23 04:04:57;;;;;;;2.10;0.90;;;10.80;74.00;;;;;;4949849;29;20257;-78
2021/05/23 04:07:25;;;;;;;1.85;1.00;;;10.90;72.80;;;;;;4937571;28;20329;-79
2021/05/23 04:09:52;;;;;;;0.80;0.75;;;10.90;71.20;;;;;;4936675;29;20268;-78
2021/05/23 04:12:22;;;;;;;4.97;1.00;;;11.00;70.70;;;;;;4937043;29;20218;-78
2021/05/23 04:14:48;;;;;;;1.20;0.75;;;11.10;68.60;;;;;;4953747;28;20211;-78
2021/05/23 04:17:15;;;;;;;1.77;0.90;;;11.10;68.60;;;;;;4955465;28;20229;-77
2021/05/23 04:19:42;;;;;;;1.90;0.90;;;11.20;67.80;;;;;;4955617;28;20214;-76
2021/05/23 04:22:10;;;;;;;1.52;0.80;;;11.20;66.70;;;;;;4957064;28;20231;-77
2021/05/23 04:24:39;;;;;;;1.38;0.95;;;11.20;65.60;;;;;;4955573;29;20310;-78
2021/05/23 04:27:08;;;;;;;1.75;0.65;;;11.20;64.20;;;;;;4956447;28;20249;-77
2021/05/23 04:29:35;;;;;;;0.85;0.70;;;11.30;63.80;;;;;;4957983;28;20194;-77
2021/05/23 04:32:02;;;;;;;1.48;0.60;;;11.30;62.30;;;;;;4957050;28;20187;-78
2021/05/23 04:34:29;;;;;;;1.20;1.00;;;11.30;61.80;;;;;;4957814;28;20190;-77
2021/05/23 04:36:56;;;;;;;1.67;0.70;;;11.30;60.60;;;;;;4957440;28;20199;-77
2021/05/23 04:39:23;;;;;;;1.00;0.70;;;11.40;60.00;;;;;;4958160;28;20202;-78
2021/05/23 04:41:49;;;;;;;1.27;0.70;;;11.40;60.00;;;;;;4957308;28;20206;-80
2021/05/23 04:44:16;;;;;;;4.47;0.90;;;11.40;60.00;;;;;;4954823;29;20246;-80
2021/05/23 04:46:42;;;;;;;0.77;0.77;;;11.40;60.00;;;;;;4953240;29;20206;-79
2021/05/23 04:49:09;;;;;;;1.40;0.88;;;11.50;59.20;;;;;;4954011;28;20207;-77
2021/05/23 04:51:36;;;;;;;1.27;0.70;;;11.50;58.00;;;;;;4951229;29;20223;-79
2021/05/23 04:54:03;;;;;;;1.55;0.85;;;11.50;57.00;;;;;;4941399;29;20210;-79
2021/05/23 04:56:30;;;;;;;1.15;0.80;;;11.50;56.80;;;;;;4944087;29;20207;-81
2021/05/23 04:58:56;;;;;;;1.00;0.90;;;11.70;55.80;;;;;;4953922;29;20226;-77
2021/05/23 05:01:23;;;;;;;1.38;0.73;;;11.70;55.20;;;;;;4955611;28;20218;-78
2021/05/23 05:03:49;;;;;;;2.92;0.93;;;11.80;55.10;;;;;;4945450;29;20222;-79
2021/05/23 05:06:15;;;;;;;3.58;0.73;;;11.80;52.50;;;;;;4942773;28;20215;-78
2021/05/23 05:08:43;;;;;;;1.38;0.68;;;11.90;51.90;;;;;;4942466;28;20258;-79
2021/05/23 05:11:09;;;;;;;1.08;0.90;;;12.00;51.10;;;;;;4942636;29;20333;-79
2021/05/23 05:13:35;;;;;;;2.58;0.80;;;12.10;51.20;;;;;;4941784;29;20203;-79
2021/05/23 05:16:02;;;;;;;1.60;0.95;;;12.20;51.30;;;;;;4946398;29;20214;-78
2021/05/23 05:18:28;;;;;;;1.60;0.70;;;12.30;51.30;;;;;;4952753;29;20234;-78
2021/05/23 05:20:55;;;;;;;0.93;0.70;;;12.40;50.70;;;;;;4950412;29;20241;-79
2021/05/23 05:23:22;;;;;;;1.85;0.80;;;12.50;50.20;;;;;;4950792;28;20211;-79
2021/05/23 05:25:49;;;;;;;0.82;0.70;;;12.40;48.80;;;;;;4950914;29;20203;-78
2021/05/23 05:28:16;;;;;;;2.72;1.10;;;12.40;48.00;;;;;;4952659;29;20238;-78
2021/05/23 05:30:42;;;;;;;2.08;0.55;;;12.40;47.90;;;;;;4955307;28;20194;-79
2021/05/23 05:33:08;;;;;;;1.52;0.68;;;12.40;47.50;;;;;;4953208;29;20229;-78
2021/05/23 05:35:35;;;;;;;0.57;0.57;;;12.30;47.70;;;;;;4954486;29;20206;-78
2021/05/23 05:38:01;;;;;;;1.65;0.77;;;12.30;47.70;;;;;;4950638;29;20235;-79
2021/05/23 05:40:28;;;;;;;1.30;0.60;;;12.40;47.30;;;;;;4952826;29;20198;-78
2021/05/23 05:42:55;;;;;;;3.85;1.02;;;12.40;47.50;;;;;;4948108;29;20211;-79
2021/05/23 05:45:22;;;;;;;2.92;0.80;;;12.40;47.20;;;;;;4940485;28;20257;-79
2021/05/23 05:47:48;;;;;;;1.77;0.80;;;12.30;47.30;;;;;;4940605;29;20230;-79
2021/05/23 05:50:15;;;;;;;1.20;0.80;;;12.30;47.50;;;;;;4951277;29;20211;-78
2021/05/23 05:52:41;;;;;;;1.13;0.95;;;12.30;47.60;;;;;;4950239;29;20207;-78
2021/05/23 05:55:09;;;;;;;1.70;1.17;;;12.30;47.80;;;;;;4948486;29;20431;-79
2021/05/23 05:57:35;;;;;;;1.17;0.77;;;12.30;47.30;;;;;;4952512;29;20230;-78
2021/05/23 06:00:04;;;;;;;1.30;0.77;;;12.30;47.70;;;;;;4947631;29;20264;-78
2021/05/23 06:02:31;;;;;;;2.40;0.88;;;12.40;48.00;;;;;;4943317;29;20718;-80
2021/05/23 06:04:57;;;;;;;1.80;0.90;;;12.40;47.60;;;;;;4944652;28;20231;-78
2021/05/23 06:07:24;;;;;;;2.88;0.90;;;12.50;47.30;;;;;;4945738;29;20234;-80
2021/05/23 06:09:50;;;;;;;0.60;0.60;;;12.60;46.80;;;;;;4942328;28;20211;-78
2021/05/23 06:12:18;;;;;;;1.60;0.70;;;12.70;46.00;;;;;;4945164;28;20237;-79
2021/05/23 06:14:45;;;;;;;2.20;1.00;;;12.90;45.90;;;;;;4948169;29;20214;-79
2021/05/23 06:17:12;;;;;;;1.40;0.85;;;13.10;45.10;;;;;;4945891;29;20234;-78
2021/05/23 06:19:38;;;;;;;1.00;0.90;;;13.10;45.10;;;;;;4948911;28;20205;-79
2021/05/23 06:22:05;;;;;;;0.70;0.70;;;13.40;44.50;;;;;;4949331;28;20219;-78
2021/05/23 06:24:31;;;;;;;1.00;0.90;;;13.70;43.00;;;;;;4948046;29;20222;-78
2021/05/23 06:26:58;;;;;;;1.40;0.70;;;14.40;41.40;;;;;;4937294;29;20235;-78
2021/05/23 06:29:24;;;;;;;0.70;0.70;;;14.30;41.00;;;;;;4937947;28;20373;-79
2021/05/23 06:31:51;;;;;;;2.90;0.77;;;14.20;42.00;;;;;;4937050;29;20732;-78
2021/05/23 06:34:18;;;;;;;0.85;0.85;;;13.80;43.00;;;;;;4945891;28;20206;-78
2021/05/23 06:36:45;;;;;;;2.80;0.90;;;13.60;42.90;;;;;;4950551;28;20241;-77
2021/05/23 06:39:11;;;;;;;1.40;0.75;;;13.80;43.00;;;;;;4954423;28;20198;-77
2021/05/23 06:41:38;;;;;;;4.72;0.82;;;14.00;42.40;;;;;;4952200;28;20242;-79
2021/05/23 06:44:05;;;;;;;3.00;0.80;;;14.30;42.00;;;;;;4939233;29;20235;-77
2021/05/23 06:46:31;;;;;;;3.38;1.08;;;14.70;40.60;;;;;;4948853;28;20232;-79
2021/05/23 06:48:58;;;;;;;1.38;0.75;;;14.90;39.60;;;;;;4954594;28;20222;-80
2021/05/23 06:51:25;;;;;;;1.50;0.80;;;14.80;39.80;;;;;;4955070;28;20218;-77
2021/05/23 06:53:52;;;;;;;1.15;0.60;;;14.80;39.10;;;;;;4955439;28;20217;-78
2021/05/23 06:56:18;;;;;;;4.10;0.90;;;14.80;39.20;;;;;;4954333;28;20202;-77
2021/05/23 06:58:45;;;;;;;1.30;0.85;;;14.90;38.80;;;;;;4955404;28;20214;-78
2021/05/23 07:01:11;;;;;;;1.00;0.70;;;14.70;38.70;;;;;;4957226;28;20203;-79
2021/05/23 07:03:38;;;;;;;3.47;1.08;;;14.50;40.00;;;;;;4952267;29;20233;-79
2021/05/23 07:06:05;;;;;;;2.05;0.80;;;14.50;40.20;;;;;;4942710;28;20214;-78
2021/05/23 07:08:33;;;;;;;3.92;1.20;;;14.30;39.70;;;;;;4942094;29;20226;-79
2021/05/23 07:10:59;;;;;;;0.60;0.60;;;14.40;40.00;;;;;;4941095;28;20242;-78
2021/05/23 07:13:26;;;;;;;4.88;0.90;;;14.60;40.10;;;;;;4941934;29;20223;-79
2021/05/23 07:15:53;;;;;;;1.65;0.73;;;15.00;38.70;;;;;;4942868;28;20658;-80
2021/05/23 07:18:20;;;;;;;1.05;0.82;;;15.20;37.80;;;;;;4940874;29;20222;-78
2021/05/23 07:20:47;;;;;;;1.45;0.90;;;14.90;37.70;;;;;;4936350;29;20729;-80
2021/05/23 07:23:13;;;;;;;2.33;0.90;;;14.80;38.60;;;;;;4938068;29;20297;-80
2021/05/23 07:25:41;;;;;;;1.42;0.60;;;14.80;38.50;;;;;;4939063;28;20277;-79
2021/05/23 07:28:08;;;;;;;1.38;0.95;;;14.90;38.20;;;;;;4942557;29;20231;-79
2021/05/23 07:30:34;;;;;;;1.75;0.70;;;14.70;37.90;;;;;;4942830;29;20210;-79
2021/05/23 07:33:02;;;;;;;1.33;0.70;;;14.30;39.40;;;;;;4951272;29;20218;-79
2021/05/23 07:35:29;;;;;;;1.23;0.65;;;14.00;40.30;;;;;;4943150;29;20210;-78
2021/05/23 07:37:55;;;;;;;2.05;1.05;;;13.90;40.70;;;;;;4936657;29;20597;-79
2021/05/23 07:40:22;;;;;;;2.25;1.23;;;13.90;40.30;;;;;;4940609;28;20238;-78
2021/05/23 07:42:49;;;;;;;1.08;0.60;;;13.90;40.10;;;;;;4938956;29;20253;-79
2021/05/23 07:45:16;;;;;;;1.38;0.65;;;14.00;40.50;;;;;;4938103;29;20235;-79
2021/05/23 07:47:43;;;;;;;1.52;0.80;;;14.10;40.40;;;;;;4937650;29;20285;-79
2021/05/23 07:50:12;;;;;;;3.85;0.98;;;14.10;40.80;;;;;;4936670;29;20671;-79
2021/05/23 07:52:39;;;;;;;1.85;0.90;;;14.40;41.60;;;;;;4938028;29;20298;-80
2021/05/23 07:55:07;;;;;;;1.40;0.80;;;14.50;42.40;;;;;;4944025;28;20279;-80
2021/05/23 07:57:33;;;;;;;1.42;0.90;;;14.20;43.40;;;;;;4954619;28;20210;-79
2021/05/23 08:00:01;;;;;;;1.60;1.00;;;14.00;43.20;;;;;;4956638;28;20194;-82
2021/05/23 08:02:28;;;;;;;1.02;0.73;;;14.00;44.00;;;;;;4953834;29;20210;-79
2021/05/23 08:04:55;;;;;;;1.80;0.90;;;14.20;43.40;;;;;;4949052;28;20245;-80
2021/05/23 08:07:21;;;;;;;2.42;0.82;;;14.50;43.70;;;;;;4947395;29;20227;-80
2021/05/23 08:09:48;;;;;;;0.73;0.50;;;14.50;43.00;;;;;;4951500;29;20217;-81
2021/05/23 08:12:14;;;;;;;1.02;0.90;;;14.80;41.00;;;;;;4950736;29;20227;-80
2021/05/23 08:14:41;;;;;;;2.05;1.13;;;14.60;41.50;;;;;;4949686;28;20210;-79
2021/05/23 08:17:08;;;;;;;1.73;1.05;;;14.40;42.00;;;;;;4949165;29;20239;-79
2021/05/23 08:19:34;;;;;;;0.88;0.55;;;14.10;43.30;;;;;;4947499;29;20566;-79
2021/05/23 08:22:04;;;;;;;2.28;2.08;;;14.00;43.90;;;;;;4942675;29;20206;-80
2021/05/23 08:24:32;;;;;;;2.78;0.93;;;14.20;43.40;;;;;;4944721;28;20234;-79
2021/05/23 08:26:58;;;;;;;1.75;0.80;;;14.20;43.40;;;;;;4941982;28;20321;-78
2021/05/23 08:29:28;;;;;;;2.58;0.73;;;14.50;43.70;;;;;;5075358;22;20237;-82
2021/05/23 08:31:54;;;;;;;2.67;1.10;;;14.80;43.60;;;;;;5081622;28;20206;-82
2021/05/23 08:34:22;;;;;;;1.45;0.90;;;14.90;42.40;;;;;;5080452;28;20236;-81
2021/05/23 08:36:48;;;;;;;2.55;1.10;;;15.00;41.40;;;;;;5079397;28;20200;-82
2021/05/23 08:39:14;;;;;;;0.70;0.63;;;15.00;42.30;;;;;;5079266;28;20230;-79
2021/05/23 08:41:41;;;;;;;1.73;0.60;;;15.20;40.70;;;;;;5084304;28;20443;-80
2021/05/23 08:44:08;;;;;;;3.37;0.87;;;15.40;40.90;;;;;;5081061;28;20280;-82
2021/05/23 08:46:34;;;;;;;1.52;1.15;;;15.80;38.80;;;;;;5081432;28;20955;-81
2021/05/23 08:49:01;;;;;;;2.45;0.90;;;16.10;38.30;;;;;;5080763;28;20255;-80
2021/05/23 08:51:28;;;;;;;2.40;0.70;;;16.40;37.20;;;;;;5080511;28;20255;-80
2021/05/23 08:53:55;;;;;;;1.37;0.87;;;16.60;36.60;;;;;;5079242;28;20440;-81
2021/05/23 08:56:21;;;;;;;1.60;0.70;;;17.10;35.30;;;;;;5078532;28;20473;-82
2021/05/23 08:58:48;;;;;;;2.27;0.97;;;17.40;35.70;;;;;;5078638;28;20435;-81
2021/05/23 09:01:24;;;;;;;2.60;0.90;;;17.70;34.00;;;;;;5079992;28;20434;-81
2021/05/23 09:03:59;;;;;;;1.70;0.90;;;17.50;33.80;;;;;;5079471;28;20492;-80
2021/05/23 09:06:31;;;;;;;0.67;0.40;;;17.50;32.90;;;;;;5080780;28;20762;-82
2021/05/23 09:08:58;;;;;;;1.53;0.90;;;17.60;34.20;;;;;;5085347;28;20468;-81
2021/05/23 09:11:25;;;;;;;2.60;0.83;;;17.40;33.80;;;;;;5092036;28;20504;-81
2021/05/23 09:13:53;;;;;;;0.80;0.70;;;17.40;34.10;;;;;;5093359;28;20430;-81
2021/05/23 09:16:19;;;;;;;1.60;0.80;;;17.20;32.90;;;;;;5089330;28;20444;-80
2021/05/23 09:18:48;;;;;;;2.03;0.80;;;17.00;31.00;;;;;;5092085;28;20503;-83
2021/05/23 09:21:16;;;;;;;1.13;0.83;;;16.40;32.60;;;;;;5086772;28;20448;-82
2021/05/23 09:23:48;;;;;;;1.10;0.70;;;16.30;35.30;;;;;;5081335;28;20474;-81
2021/05/23 09:26:20;;;;;;;2.10;0.77;;;16.40;36.20;;;;;;5087378;28;20487;-81
2021/05/23 09:28:47;;;;;;;2.50;0.70;;;16.40;37.10;;;;;;5096437;28;20450;-80
2021/05/23 09:31:16;;;;;;;1.60;0.90;;;16.50;37.00;;;;;;5095838;28;20444;-84
2021/05/23 09:33:44;;;;;;;3.57;1.00;;;16.30;38.40;;;;;;5097051;28;20452;-80
2021/05/23 09:36:11;;;;;;;1.47;1.07;;;16.20;38.50;;;;;;5095902;28;20414;-82
2021/05/23 09:38:41;;;;;;;8.70;0.90;;;16.20;38.60;;;;;;5085490;28;20447;-83
2021/05/23 09:41:20;;;;;;;2.07;0.70;;;16.00;39.30;;;;;;5079593;28;20465;-80
2021/05/23 09:43:46;;;;;;;2.63;1.00;;;16.20;38.00;;;;;;5085328;28;20491;-80
2021/05/23 09:46:13;;;;;;;3.53;1.20;;;16.00;38.60;;;;;;5089434;28;21112;-79
2021/05/23 09:48:47;;;;;;;1.47;0.73;;;16.00;39.10;;;;;;5088881;28;20475;-83
2021/05/23 09:51:15;;;;;;;2.50;0.87;;;16.20;39.30;;;;;;5088921;28;20478;-80
2021/05/23 09:53:42;;;;;;;3.47;0.73;;;16.20;39.40;;;;;;5090199;28;20429;-80
2021/05/23 09:56:11;;;;;;;0.83;0.70;;;16.20;39.60;;;;;;5091266;28;20431;-81
2021/05/23 09:58:41;;;;;;;1.63;0.90;;;16.30;37.80;;;;;;5085151;28;20878;-79
2021/05/23 10:01:09;;;;;;;2.00;0.80;;;16.70;36.50;;;;;;5088252;28;20449;-81
2021/05/23 10:03:40;;;;;;;2.80;0.87;;;17.10;36.10;;;;;;5083908;28;20422;-81
2021/05/23 10:06:08;;;;;;;1.00;0.90;;;17.40;36.40;;;;;;5082001;28;20436;-81
2021/05/23 10:08:35;;;;;;;0.80;0.57;;;17.40;35.50;;;;;;5082335;28;20483;-80
2021/05/23 10:11:01;;;;;;;2.87;1.00;;;17.60;34.80;;;;;;5081891;28;20551;-81
2021/05/23 10:13:28;;;;;;;3.80;1.00;;;17.70;33.80;;;;;;5080328;28;20452;-79
2021/05/23 10:15:56;;;;;;;1.80;0.87;;;17.50;33.90;;;;;;5078540;28;20480;-80
2021/05/23 10:18:27;;;;;;;1.00;0.80;;;17.60;33.30;;;;;;5081459;28;20770;-82
2021/05/23 10:20:56;;;;;;;0.97;0.80;;;17.40;33.70;;;;;;5083566;28;20430;-81
2021/05/23 10:23:27;;;;;;;1.33;1.00;;;17.40;34.10;;;;;;5079702;28;20411;-80
2021/05/23 10:25:58;;;;;;;2.20;0.70;;;17.40;33.80;;;;;;5078886;28;20498;-79
2021/05/23 10:28:25;;;;;;;4.07;1.10;;;17.30;35.40;;;;;;5078480;28;20494;-81
2021/05/23 10:30:53;;;;;;;1.33;0.83;;;17.20;37.80;;;;;;5079382;28;20466;-80
2021/05/23 10:33:21;;;;;;;2.00;0.90;;;17.30;35.50;;;;;;5088741;28;20791;-80
2021/05/23 10:35:49;;;;;;;3.03;0.90;;;17.30;35.00;;;;;;5081517;28;20430;-80
2021/05/23 10:38:17;;;;;;;1.27;0.80;;;17.50;33.50;;;;;;5081828;28;20472;-79
2021/05/23 10:40:52;;;;;;;1.80;0.70;;;17.80;32.30;;;;;;5084908;28;20426;-81
2021/05/23 10:43:27;;;;;;;5.03;0.90;;;18.20;31.10;;;;;;5084035;28;20975;-80
2021/05/23 10:46:06;;;;;;;2.00;0.90;;;18.40;29.70;;;;;;5084602;28;20940;-81
2021/05/23 10:48:33;;;;;;;1.63;1.07;;;18.60;28.60;;;;;;5087900;28;20453;-80
2021/05/23 10:51:11;;;;;;;8.07;1.10;;;18.50;28.50;;;;;;5095398;28;20875;-81
2021/05/23 10:53:37;;;;;;;1.43;0.97;;;18.50;28.80;;;;;;5095620;28;20471;-81
2021/05/23 10:56:04;;;;;;;2.53;1.10;;;18.70;28.60;;;;;;5092731;28;20422;-81
2021/05/23 10:58:31;;;;;;;1.53;0.90;;;18.60;28.80;;;;;;5093940;28;20467;-79
2021/05/23 11:00:58;;;;;;;4.27;1.00;;;18.50;28.00;;;;;;5095082;28;20417;-79
2021/05/23 11:03:26;;;;;;;1.13;0.80;;;18.30;28.90;;;;;;5097250;28;20419;-80
2021/05/23 11:06:02;;;;;;;1.93;0.93;;;18.10;31.00;;;;;;5098188;28;20503;-81
2021/05/23 11:08:32;;;;;;;2.57;1.20;;;18.30;29.90;;;;;;5096540;28;20467;-81
2021/05/23 11:10:59;;;;;;;1.80;0.90;;;18.80;28.00;;;;;;5095503;28;20441;-82
2021/05/23 11:13:31;;;;;;;4.60;0.90;;;18.80;28.00;;;;;;5097675;28;20513;-79
2021/05/23 11:16:10;;;;;;;0.93;0.90;;;19.20;28.40;;;;;;5095821;28;20798;-81
2021/05/23 11:18:37;;;;;;;1.50;0.93;;;19.10;28.00;;;;;;5095846;28;20443;-82
2021/05/23 11:21:09;;;;;;;0.60;0.60;;;19.10;27.20;;;;;;5098921;28;20520;-83
2021/05/23 11:23:46;;;;;;;2.33;1.17;;;18.50;27.80;;;;;;5093164;28;20403;-82
2021/05/23 11:26:15;;;;;;;2.43;1.10;;;18.50;29.00;;;;;;5096161;28;20411;-82
2021/05/23 11:28:48;;;;;;;1.10;0.70;;;18.40;27.70;;;;;;5098273;28;20518;-80
2021/05/23 11:34:00;;;;;;;1.20;1.10;;;17.90;28.60;;;;;;5070862;28;20447;-83
2021/05/23 11:36:29;;;;;;;3.33;1.00;;;17.60;28.50;;;;;;5065648;28;20427;-81
2021/05/23 11:38:56;;;;;;;0.97;0.80;;;18.10;29.00;;;;;;5061481;28;20981;-80
2021/05/23 11:41:30;;;;;;;4.77;1.00;;;18.80;28.00;;;;;;5061996;28;20479;-80
2021/05/23 11:43:59;;;;;;;1.37;0.70;;;19.20;26.50;;;;;;5063840;28;20444;-80
2021/05/23 11:46:26;;;;;;;1.10;0.87;;;19.20;23.70;;;;;;5063611;28;20443;-81
2021/05/23 11:48:53;;;;;;;1.67;0.80;;;19.10;23.80;;;;;;5064458;28;20552;-81
2021/05/23 11:51:25;;;;;;;2.43;0.90;;;19.20;24.20;;;;;;5062200;28;20571;-81
2021/05/23 11:53:54;;;;;;;1.43;0.73;;;19.30;23.80;;;;;;5058410;28;20479;-80
2021/05/23 11:56:22;;;;;;;3.13;0.93;;;19.00;23.70;;;;;;5056342;28;20540;-79
2021/05/23 11:58:50;;;;;;;2.40;0.80;;;19.00;23.50;;;;;;5064165;28;20509;-80
2021/05/23 12:01:20;;;;;;;2.77;1.07;;;18.80;23.80;;;;;;5058865;28;20819;-79
2021/05/23 12:04:01;;;;;;;1.07;0.73;;;18.60;23.20;;;;;;5063477;28;20427;-82
2021/05/23 12:06:29;;;;;;;7.43;1.00;;;18.10;23.70;;;;;;5056591;28;20461;-80
2021/05/23 12:09:10;;;;;;;5.07;1.00;;;17.80;24.00;;;;;;5057219;28;20574;-81
2021/05/23 12:11:38;;;;;;;1.57;0.60;;;17.50;24.90;;;;;;5057248;28;20556;-80
2021/05/23 12:14:05;;;;;;;3.53;1.00;;;17.50;25.30;;;;;;5061961;28;21002;-81
2021/05/23 12:16:32;;;;;;;0.97;0.73;;;17.40;24.80;;;;;;5058567;28;20426;-81
2021/05/23 12:18:58;;;;;;;2.23;1.07;;;17.20;26.90;;;;;;5064210;28;20903;-80
2021/05/23 12:21:29;;;;;;;0.90;0.80;;;16.80;28.40;;;;;;5070833;28;20412;-81
2021/05/23 12:23:57;;;;;;;1.63;0.80;;;16.60;28.30;;;;;;5076910;28;20441;-87
2021/05/23 12:26:26;;;;;;;3.03;0.97;;;16.60;28.70;;;;;;5061119;28;20435;-81
2021/05/23 12:28:53;;;;;;;1.80;1.20;;;16.70;28.60;;;;;;5058787;28;20472;-83
2021/05/23 12:31:21;;;;;;;2.87;1.10;;;16.60;28.70;;;;;;5058233;28;20536;-80
2021/05/23 12:33:50;;;;;;;1.70;0.70;;;16.80;28.50;;;;;;5058130;28;20492;-79
2021/05/23 12:36:17;;;;;;;1.77;0.90;;;17.00;27.60;;;;;;5058406;28;21114;-80
2021/05/23 12:38:54;;;;;;;1.10;1.00;;;16.90;27.00;;;;;;5058748;28;20472;-80
2021/05/23 12:41:21;;;;;;;1.00;0.90;;;16.70;27.90;;;;;;5058885;28;20551;-80
2021/05/23 12:43:48;;;;;;;3.63;0.90;;;16.90;27.50;;;;;;5059007;28;20506;-83
2021/05/23 12:46:15;;;;;;;1.73;1.00;;;16.90;26.70;;;;;;5061551;28;20481;-81
2021/05/23 12:48:43;;;;;;;1.00;0.90;;;17.30;26.90;;;;;;5060576;28;20518;-82
2021/05/23 12:51:10;;;;;;;2.00;1.07;;;17.50;27.10;;;;;;5063203;28;20475;-82
2021/05/23 12:53:43;;;;;;;0.90;0.87;;;17.60;27.20;;;;;;5066268;28;20419;-79
2021/05/23 12:56:12;;;;;;;3.20;0.87;;;17.70;26.20;;;;;;5061877;28;20939;-84
2021/05/23 12:58:47;;;;;;;1.57;1.00;;;17.80;26.00;;;;;;5061990;28;20661;-79